Time;durP1;ratioP1;P1;durP2;ratioP2;P2;SDS_P1;SDS_P2;PMS_P1;PMS_P2;Temp;Humidity;BMP_temperature;BMP_pressure;BME280_temperature;BME280_humidity;BME280_pressure;Samples;Min_cycle;Max_cycle;Signal;HPM_P1;HPM_P2
2022/06/10 00:00:41;;;;;;;;;5.00;5.00;;;;;17.77;100.00;101779.97;5084489;28;45205;-88
2022/06/10 00:03:07;;;;;;;;;5.60;4.80;;;;;17.71;100.00;101778.59;5085797;28;45219;-87
2022/06/10 00:05:36;;;;;;;;;8.40;5.20;;;;;17.70;100.00;101776.06;5089210;27;44768;-87
2022/06/10 00:08:04;;;;;;;;;8.80;7.40;;;;;17.67;100.00;101774.44;5092408;27;45253;-85
2022/06/10 00:10:29;;;;;;;;;6.20;6.20;;;;;17.67;100.00;101779.81;5087623;27;45037;-87
2022/06/10 00:12:55;;;;;;;;;5.75;4.00;;;;;17.65;100.00;101772.88;5088504;27;45159;-86
2022/06/10 00:15:22;;;;;;;;;5.00;5.00;;;;;17.62;100.00;101778.50;5090906;28;44661;-87
2022/06/10 00:17:48;;;;;;;;;5.80;4.00;;;;;17.63;100.00;101778.34;5083518;27;44849;-86
2022/06/10 00:20:18;;;;;;;;;6.50;6.50;;;;;17.64;100.00;101779.22;5084172;27;45345;-85
2022/06/10 00:22:43;;;;;;;;;6.00;5.40;;;;;17.64;100.00;101782.75;5084344;27;44867;-87
2022/06/10 00:25:09;;;;;;;;;6.50;5.00;;;;;17.64;100.00;101777.38;5086356;28;45138;-88
2022/06/10 00:27:35;;;;;;;;;6.00;5.00;;;;;17.66;100.00;101782.66;5088174;27;44811;-87
2022/06/10 00:30:00;;;;;;;;;3.75;3.75;;;;;17.65;100.00;101772.88;5083242;28;46537;-86
2022/06/10 00:32:26;;;;;;;;;8.25;5.75;;;;;17.64;100.00;101765.78;5084769;28;45369;-87
2022/06/10 00:34:51;;;;;;;;;8.00;6.25;;;;;17.62;100.00;101771.28;5090257;27;45023;-87
2022/06/10 00:37:17;;;;;;;;;7.75;6.75;;;;;17.61;100.00;101771.41;5089974;27;44734;-86
2022/06/10 00:39:43;;;;;;;;;6.75;6.75;;;;;17.58;100.00;101774.34;5085812;27;45471;-86
2022/06/10 00:42:11;;;;;;;;;8.75;5.00;;;;;17.59;100.00;101776.03;5083028;27;45361;-88
2022/06/10 00:44:47;;;;;;;;;6.00;6.00;;;;;17.58;100.00;101777.03;5080880;27;44865;-88
2022/06/10 00:47:20;;;;;;;;;5.00;3.40;;;;;17.58;100.00;101777.03;5081184;27;44865;-87
2022/06/10 00:50:08;;;;;;;;;7.00;5.00;;;;;17.57;100.00;101765.44;5081917;27;45163;-88
2022/06/10 00:52:41;;;;;;;;;5.00;4.60;;;;;17.60;100.00;101761.63;5081286;28;44721;-86
2022/06/10 00:55:09;;;;;;;;;4.40;4.40;;;;;17.59;100.00;101762.59;5079701;28;45594;-88
2022/06/10 00:57:39;;;;;;;;;6.20;5.40;;;;;17.59;100.00;101762.59;5082053;27;44846;-89
2022/06/10 01:00:12;;;;;;;;;5.40;5.40;;;;;17.61;100.00;101757.97;5104486;27;46563;-88
2022/06/10 01:02:39;;;;;;;;;7.80;5.40;;;;;17.62;100.00;101763.22;5093999;27;44803;-88
2022/06/10 01:05:13;;;;;;;;;5.40;5.40;;;;;17.61;100.00;101764.22;5089924;28;44816;-86
2022/06/10 01:07:43;;;;;;;;;7.00;5.40;;;;;17.61;100.00;101756.16;5084756;28;45263;-87
2022/06/10 01:10:15;;;;;;;;;6.40;5.00;;;;;17.60;100.00;101758.94;5088249;27;44986;-87
2022/06/10 01:13:07;;;;;;;;;5.00;4.20;;;;;17.58;100.00;101756.38;5087800;27;44773;-86
2022/06/10 01:15:53;;;;;;;;;8.20;5.00;;;;;17.58;100.00;101756.38;5025289;28;45292;-88
2022/06/10 01:18:37;;;;;;;;;7.20;4.60;;;;;17.55;100.00;101751.28;5024566;28;44831;-88
2022/06/10 01:21:33;;;;;;;;;6.00;5.00;;;;;17.50;100.00;101756.13;5012112;28;45219;-87
2022/06/10 01:24:07;;;;;;;;;4.40;4.20;;;;;17.45;100.00;101753.84;5004865;28;44847;-88
2022/06/10 01:29:50;;;;;;;;;4.40;4.40;;;;;17.34;100.00;101761.03;5026329;28;45378;-89
2022/06/10 01:32:34;;;;;;;;;3.40;2.60;;;;;17.29;100.00;101760.53;5022122;28;45343;-86
2022/06/10 01:35:13;;;;;;;;;5.60;5.60;;;;;17.23;100.00;101761.88;5022424;28;45372;-88
2022/06/10 01:37:51;;;;;;;;;7.00;4.80;;;;;17.18;100.00;101759.56;5024012;28;44755;-87
2022/06/10 01:40:54;;;;;;;;;5.40;5.40;;;;;17.15;100.00;101757.09;5023916;28;44795;-85
2022/06/10 01:43:28;;;;;;;;;4.40;4.00;;;;;17.13;100.00;101763.56;5025581;28;45516;-86
2022/06/10 01:45:56;;;;;;;;;6.40;6.00;;;;;17.08;100.00;101763.94;5027658;28;44837;-87
2022/06/10 01:48:54;;;;;;;;;10.80;7.20;;;;;17.05;100.00;101758.78;5022050;28;45359;-87
2022/06/10 01:51:31;;;;;;;;;4.60;3.80;;;;;17.03;100.00;101762.59;5022648;28;45755;-88
2022/06/10 01:54:15;;;;;;;;;6.20;6.20;;;;;17.01;100.00;101764.50;5066770;28;45172;-87
2022/06/10 01:56:45;;;;;;;;;10.80;6.20;;;;;17.00;100.00;101770.88;5071921;28;44745;-86
2022/06/10 01:59:15;;;;;;;;;6.40;4.80;;;;;16.98;100.00;101771.00;5069744;28;44795;-87
2022/06/10 02:01:48;;;;;;;;;5.40;5.40;;;;;16.97;100.00;101769.28;5068217;28;45414;-87
2022/06/10 02:04:35;;;;;;;;;4.80;4.00;;;;;16.93;100.00;101760.59;5065618;28;45070;-85
2022/06/10 02:07:06;;;;;;;;;5.80;4.40;;;;;16.93;100.00;101768.66;5065015;28;45443;-88
2022/06/10 02:09:56;;;;;;;;;7.60;5.20;;;;;16.93;100.00;101771.34;5077021;27;44742;-88
2022/06/10 02:12:45;;;;;;;;;9.20;6.20;;;;;16.94;100.00;101774.88;5056145;28;44987;-86
2022/06/10 02:15:41;;;;;;;;;5.80;4.00;;;;;16.95;100.00;101772.06;5065275;28;45168;-88
2022/06/10 02:18:12;;;;;;;;;9.60;5.00;;;;;17.00;100.00;101778.91;5067827;28;45309;-87
2022/06/10 02:20:44;;;;;;;;;4.80;3.80;;;;;17.01;100.00;101772.56;5061434;28;44845;-87
2022/06/10 02:23:13;;;;;;;;;3.80;3.80;;;;;17.01;100.00;101769.88;5064044;28;44809;-87
2022/06/10 02:25:53;;;;;;;;;5.80;5.80;;;;;17.02;100.00;101766.22;5085180;27;46697;-88
2022/06/10 02:28:28;;;;;;;;;5.60;4.40;;;;;17.02;100.00;101764.41;5069058;28;44770;-87
2022/06/10 02:31:01;;;;;;;;;7.00;5.60;;;;;17.02;100.00;101766.22;5066079;28;45492;-87
2022/06/10 02:33:26;;;;;;;;;4.80;4.80;;;;;16.98;100.00;101762.94;5064442;27;44796;-87
2022/06/10 02:36:05;;;;;;;;;8.75;5.75;;;;;16.95;100.00;101771.22;5077390;28;45434;-87
2022/06/10 02:39:06;;;;;;;;;5.80;5.00;;;;;16.92;100.00;101771.44;5064145;28;44759;-88
2022/06/10 02:41:50;;;;;;;;;4.80;4.80;;;;;16.85;100.00;101773.75;5073976;27;44769;-87
2022/06/10 02:44:37;;;;;;;;;8.60;7.40;;;;;16.80;100.00;101778.63;5066627;28;44987;-87
2022/06/10 02:47:27;;;;;;;;;5.60;5.00;;;;;16.76;100.00;101774.47;5065352;28;45174;-86
2022/06/10 02:49:53;;;;;;;;;6.40;5.40;;;;;16.70;100.00;101772.22;5068766;28;44724;-88
2022/06/10 02:52:22;;;;;;;;;7.00;6.25;;;;;16.66;100.00;101784.16;5069302;28;45265;-85
2022/06/10 02:54:48;;;;;;;;;6.20;4.60;;;;;16.58;100.00;101786.56;5073165;28;44820;-87
2022/06/10 02:57:17;;;;;;;;;8.00;6.75;;;;;16.51;100.00;101788.84;5067508;28;46021;-88
2022/06/10 03:03:02;;;;;;;;;7.00;5.60;;;;;16.42;100.00;101793.06;5063041;28;44686;-88
2022/06/10 03:05:38;;;;;;;;;5.40;3.60;;;;;16.40;100.00;101795.03;5062204;28;44953;-88
2022/06/10 03:08:15;;;;;;;;;6.40;5.40;;;;;16.38;100.00;101790.72;5081353;27;46673;-88
2022/06/10 03:10:41;;;;;;;;;6.40;6.00;;;;;16.36;100.00;101790.84;5069632;28;44864;-87
2022/06/10 03:13:30;;;;;;;;;3.50;3.50;;;;;16.35;100.00;101791.84;5067662;28;44813;-86
2022/06/10 03:16:19;;;;;;;;;7.40;6.40;;;;;16.32;100.00;101785.84;5067023;28;44806;-85
2022/06/10 03:18:54;;;;;;;;;7.00;6.00;;;;;16.31;100.00;101786.81;5070426;28;46787;-86
2022/06/10 03:21:54;;;;;;;;;6.00;4.60;;;;;16.28;100.00;101782.53;5090267;27;44798;-86
2022/06/10 03:24:44;;;;;;;;;5.20;4.60;;;;;16.25;100.00;101788.13;5074278;28;44792;-88
2022/06/10 03:27:19;;;;;;;;;7.60;5.60;;;;;16.25;100.00;101790.81;5075133;28;45365;-87
2022/06/10 03:29:53;;;;;;;;;3.40;3.40;;;;;16.23;100.00;101792.72;5070160;28;45347;-87
2022/06/10 03:32:28;;;;;;;;;7.40;5.40;;;;;16.19;100.00;101801.97;5069578;28;44761;-85
2022/06/10 03:34:59;;;;;;;;;8.60;5.20;;;;;16.15;100.00;101805.88;5072511;28;44836;-87
2022/06/10 03:37:25;;;;;;;;;5.20;5.20;;;;;16.12;100.00;101796.22;5099258;27;45213;-87
2022/06/10 03:39:55;;;;;;;;;6.00;4.25;;;;;16.12;100.00;101803.41;5111352;27;45257;-87
2022/06/10 03:42:23;;;;;;;;;6.00;4.60;;;;;16.11;100.00;101802.53;5112190;27;45405;-88
2022/06/10 03:44:53;;;;;;;;;3.00;3.00;;;;;16.11;100.00;101802.53;5110528;27;44736;-87
2022/06/10 03:47:25;;;;;;;;;7.40;5.80;;;;;16.09;100.00;101803.59;5108018;27;45500;-88
2022/06/10 03:49:57;;;;;;;;;7.40;3.00;;;;;16.06;100.00;101804.72;5110086;27;45010;-85
2022/06/10 03:52:27;;;;;;;;;7.20;5.00;;;;;16.04;100.00;101809.31;5103216;27;44741;-87
2022/06/10 03:54:52;;;;;;;;;4.60;4.60;;;;;16.03;100.00;101804.91;5106008;27;44928;-86
2022/06/10 03:57:18;;;;;;;;;8.25;8.25;;;;;16.03;100.00;101806.75;5104852;27;44822;-87
2022/06/10 03:59:45;;;;;;;;;12.25;6.50;;;;;15.99;100.00;101800.75;5106705;27;46836;-89
2022/06/10 04:02:10;;;;;;;;;2.80;2.60;;;;;15.97;100.00;101799.16;5108225;27;45340;-87
2022/06/10 04:04:38;;;;;;;;;12.00;5.25;;;;;15.97;100.00;101802.69;5106534;27;44826;-88
2022/06/10 04:07:05;;;;;;;;;6.60;5.40;;;;;15.96;100.00;101813.53;5103864;27;44931;-87
2022/06/10 04:09:32;;;;;;;;;6.00;5.20;;;;;15.96;100.00;101816.22;5109991;27;44986;-90
2022/06/10 04:11:57;;;;;;;;;6.20;6.20;;;;;15.97;100.00;101816.09;5112440;27;44583;-91
2022/06/10 04:14:23;;;;;;;;;7.25;5.50;;;;;16.07;100.00;101817.13;5115323;27;44815;-89
2022/06/10 04:16:52;;;;;;;;;9.50;6.25;;;;;16.18;100.00;101825.25;5119208;27;45374;-91
2022/06/10 04:19:18;;;;;;;;;7.00;6.00;;;;;16.31;100.00;101821.69;5119931;27;45212;-92
2022/06/10 04:21:44;;;;;;;;;6.75;5.75;;;;;16.43;100.00;101823.44;5109975;27;44626;-90
2022/06/10 04:24:10;;;;;;;;;5.40;5.40;;;;;16.57;100.00;101820.56;5116944;27;44680;-91
2022/06/10 04:26:37;;;;;;;;;6.60;5.00;;;;;16.74;100.00;101824.72;5116445;27;44890;-91
2022/06/10 04:29:03;;;;;;;;;5.25;5.25;;;;;16.91;100.00;101820.75;5123191;27;45063;-92
2022/06/10 04:31:31;;;;;;;;;6.20;6.20;;;;;17.07;100.00;101821.28;5117212;27;44903;-91
2022/06/10 04:33:57;;;;;;;;;8.20;5.00;;;;;17.28;100.00;101824.13;5113811;27;44780;-90
2022/06/10 04:36:22;;;;;;;;;5.00;4.50;;;;;17.44;100.00;101832.69;5113464;27;45367;-91
2022/06/10 04:38:48;;;;;;;;;8.25;6.00;;;;;17.56;100.00;101821.97;5108333;27;46572;-92
2022/06/10 04:41:14;;;;;;;;;5.50;4.00;;;;;17.70;100.00;101838.72;5112626;27;45278;-90
2022/06/10 04:43:40;;;;;;;;;5.50;5.00;;;;;17.86;100.00;101833.00;5132209;27;44706;-91
2022/06/10 04:46:13;;;;;;;;;6.20;5.20;;;;;18.05;100.00;101828.84;5112279;27;44932;-92
2022/06/10 04:48:41;;;;;;;;;4.80;4.80;;;;;18.22;100.00;101831.00;5106787;27;46901;-91
2022/06/10 04:51:08;;;;;;;;;8.40;4.00;;;;;18.38;100.00;101830.59;5109034;27;45219;-92
2022/06/10 04:53:35;;;;;;;;;7.60;5.20;;;;;18.51;100.00;101831.28;5110022;27;44729;-92
2022/06/10 04:56:01;;;;;;;;;6.20;4.60;;;;;18.66;100.00;101821.06;5110508;27;44915;-92
2022/06/10 04:58:27;;;;;;;;;8.75;6.00;;;;;18.85;100.00;101818.56;5107828;27;45223;-92
2022/06/10 05:00:53;;;;;;;;;8.60;6.40;;;;;19.06;100.00;101815.91;5118820;27;45196;-91
2022/06/10 05:03:18;;;;;;;;;5.50;4.25;;;;;19.07;100.00;101817.59;5122523;27;44920;-91
2022/06/10 05:05:46;;;;;;;;;3.00;3.00;;;;;19.18;100.00;101820.22;5127802;27;44754;-93
2022/06/10 05:08:17;;;;;;;;;6.20;4.80;;;;;19.34;100.00;101813.50;5127044;27;45104;-92
2022/06/10 05:10:43;;;;;;;;;7.00;5.20;;;;;19.45;100.00;101816.97;5126883;27;44748;-92
2022/06/10 05:16:31;;;;;;;;;4.60;4.00;;;;;19.71;100.00;101809.31;5128031;27;44723;-90
2022/06/10 05:18:58;;;;;;;;;7.60;5.80;;;;;19.85;100.00;101815.34;5124021;27;45540;-91
2022/06/10 05:21:24;;;;;;;;;5.60;3.20;;;;;20.00;100.00;101814.81;5118518;27;44623;-91
2022/06/10 05:23:53;;;;;;;;;8.00;5.00;;;;;20.11;100.00;101816.53;5116825;27;44776;-89
2022/06/10 05:26:20;;;;;;;;;4.00;3.20;;;;;20.34;100.00;101814.47;5120016;27;44807;-89
2022/06/10 05:28:49;;;;;;;;;6.20;4.80;;;;;20.59;100.00;101820.34;5118042;27;46744;-92
2022/06/10 05:31:14;;;;;;;;;9.00;5.20;;;;;20.73;100.00;101828.88;5131596;27;44596;-87
2022/06/10 05:36:24;;;;;;;;;3.80;3.40;;;;;20.92;100.00;101819.06;5106101;27;44578;-87
2022/06/10 05:38:49;;;;;;;;;5.00;3.00;;;;;20.84;100.00;101821.63;5090514;28;47075;-87
2022/06/10 05:43:59;;;;;;;;;2.20;1.00;;;;;20.54;100.00;101826.16;5089309;28;45229;-88
2022/06/10 05:46:24;;;;;;;;;4.25;3.25;;;;;20.35;100.00;101828.81;5082475;27;44974;-86
2022/06/10 05:48:50;;;;;;;;;9.00;3.00;;;;;20.51;100.00;101826.47;5080878;27;45240;-86
2022/06/10 05:51:15;;;;;;;;;7.50;3.75;;;;;20.81;100.00;101827.31;5086381;27;44700;-89
2022/06/10 05:53:41;;;;;;;;;6.00;5.00;;;;;21.08;100.00;101831.97;5085360;27;45288;-87
2022/06/10 05:56:06;;;;;;;;;3.00;3.00;;;;;21.29;100.00;101835.38;5085033;27;44847;-85
2022/06/10 05:58:32;;;;;;;;;6.50;3.75;;;;;21.53;100.00;101849.28;5083707;28;45240;-86
2022/06/10 06:00:57;;;;;;;;;3.75;3.25;;;;;21.75;100.00;101849.91;5086646;27;44706;-87
2022/06/10 06:03:24;;;;;;;;;3.40;2.80;;;;;21.94;100.00;101855.22;5087679;27;44743;-88
2022/06/10 06:05:50;;;;;;;;;3.00;2.25;;;;;22.05;100.00;101846.94;5090054;28;44811;-89
2022/06/10 06:08:16;;;;;;;;;1.40;1.40;;;;;21.89;100.00;101857.53;5089380;28;46821;-86
2022/06/10 06:10:41;;;;;;;;;3.75;3.75;;;;;21.35;100.00;101859.13;5091683;27;44838;-87
2022/06/10 06:13:06;;;;;;;;;2.75;2.50;;;;;21.47;100.00;101859.84;5091769;28;44817;-85
2022/06/10 06:15:32;;;;;;;;;4.25;2.50;;;;;21.22;100.00;101869.38;5088656;27;44795;-87
2022/06/10 06:17:57;;;;;;;;;3.50;3.00;;;;;21.26;100.00;101870.78;5087257;27;46988;-88
2022/06/10 06:20:23;;;;;;;;;2.50;2.50;;;;;21.45;100.00;101859.97;5092132;28;45245;-87
2022/06/10 06:22:49;;;;;;;;;3.75;3.25;;;;;21.24;100.00;101870.94;5091202;28;44819;-88
2022/06/10 06:25:16;;;;;;;;;5.00;2.50;;;;;21.42;100.00;101862.09;5087131;27;44921;-86
2022/06/10 06:27:44;;;;;;;;;3.20;3.00;;;;;21.58;100.00;101862.38;5087016;27;45271;-87
2022/06/10 06:30:21;;;;;;;;;4.60;3.60;;;;;21.75;100.00;101861.56;5080025;28;44718;-88
2022/06/10 06:32:48;;;;;;;;;2.20;2.20;;;;;22.03;100.00;101865.16;5080637;28;44794;-86
2022/06/10 06:35:15;;;;;;;;;3.00;3.00;;;;;22.18;100.00;101865.53;5082402;28;44874;-86
2022/06/10 06:37:41;;;;;;;;;4.00;2.80;;;;;22.23;100.00;101857.81;5086432;27;45328;-87
2022/06/10 06:40:09;;;;;;;;;3.20;2.60;;;;;22.38;100.00;101870.84;5086347;27;44801;-85
2022/06/10 06:42:36;;;;;;;;;3.00;2.00;;;;;22.49;100.00;101859.81;5086331;27;44705;-87
2022/06/10 06:45:03;;;;;;;;;3.00;3.00;;;;;22.52;100.00;101867.63;5085004;28;44759;-87
2022/06/10 06:47:29;;;;;;;;;3.80;3.20;;;;;22.64;100.00;101862.84;5074227;27;46248;-87
2022/06/10 06:49:54;;;;;;;;;2.00;2.00;;;;;22.84;100.00;101865.25;5064925;28;44687;-88
2022/06/10 06:52:20;;;;;;;;;3.00;3.00;;;;;23.07;100.00;101859.38;5066837;28;44713;-88
2022/06/10 06:54:45;;;;;;;;;4.75;3.00;;;;;23.22;100.00;101865.09;5071107;28;45672;-88
2022/06/10 06:57:13;;;;;;;;;2.00;2.00;;;;;22.73;100.00;101864.63;5086506;28;45000;-89
2022/06/10 06:59:40;;;;;;;;;2.80;2.80;;;;;22.58;100.00;101857.03;5072691;28;45351;-92
2022/06/10 07:02:08;;;;;;;;;5.00;2.00;;;;;22.83;100.00;101857.28;5047682;28;45388;-89
2022/06/10 07:04:35;;;;;;;;;3.80;2.60;;;;;22.87;100.00;101864.09;5067221;28;44817;-90
2022/06/10 07:07:00;;;;;;;;;3.80;3.80;;;;;22.90;100.00;101855.66;5068754;28;45129;-90
2022/06/10 07:09:26;;;;;;;;;2.00;2.00;;;;;22.99;100.00;101862.88;5066480;28;44821;-87
2022/06/10 07:11:51;;;;;;;;;0.00;0.00;;;;;22.92;100.00;101856.38;5061853;28;44982;-88
2022/06/10 07:14:17;;;;;;;;;3.25;2.00;;;;;22.96;100.00;101862.31;5062566;28;45258;-89
2022/06/10 07:16:42;;;;;;;;;2.00;2.00;;;;;22.87;100.00;101869.50;5080431;28;45272;-90
2022/06/10 07:19:11;;;;;;;;;3.00;2.00;;;;;22.90;100.00;101860.25;5070455;28;44822;-91
2022/06/10 07:21:38;;;;;;;;;1.80;1.80;;;;;23.13;100.00;101864.16;5085692;27;45243;-90
2022/06/10 07:24:05;;;;;;;;;4.40;2.40;;;;;23.46;100.00;101862.53;5081300;28;44943;-89
2022/06/10 07:26:31;;;;;;;;;5.40;2.00;;;;;23.42;100.00;101855.72;5083624;27;45235;-89
2022/06/10 07:28:56;;;;;;;;;5.50;2.00;;;;;23.33;100.00;101853.97;5073137;28;44822;-88
2022/06/10 07:31:22;;;;;;;;;2.00;2.00;;;;;23.39;100.00;101857.91;5088391;28;45257;-88
2022/06/10 07:33:47;;;;;;;;;4.50;1.25;;;;;22.96;100.00;101859.59;5090370;27;44722;-88
2022/06/10 07:36:13;;;;;;;;;3.00;3.00;;;;;22.50;100.00;101867.78;5091142;28;45268;-88
2022/06/10 07:38:38;;;;;;;;;2.00;1.00;;;;;22.42;100.00;101870.38;5088960;28;44764;-86
2022/06/10 07:43:48;;;;;;;;;2.20;2.00;;;;;22.74;100.00;101877.16;5084490;28;44681;-88
2022/06/10 07:46:16;;;;;;;;;2.00;2.00;;;;;22.87;100.00;101869.50;5085282;28;45445;-89
2022/06/10 07:48:43;;;;;;;;;3.40;2.00;;;;;23.03;100.00;101880.53;5067798;28;44864;-87
2022/06/10 07:51:08;;;;;;;;;1.60;1.60;;;;;23.17;100.00;101875.56;5064475;28;45251;-87
2022/06/10 07:53:34;;;;;;;;;1.00;1.00;;;;;23.33;100.00;101873.81;5067248;27;44772;-88
2022/06/10 07:56:00;;;;;;;;;3.20;2.20;;;;;23.76;100.00;101873.94;5067904;28;45601;-88
2022/06/10 07:58:28;;;;;;;;;3.00;2.00;;;;;23.73;100.00;101875.09;5060636;28;44808;-86
2022/06/10 08:00:54;;;;;;;;;3.60;1.80;;;;;23.37;100.00;101866.22;5062495;28;44928;-86
2022/06/10 08:03:20;;;;;;;;;1.25;1.25;;;;;23.22;100.00;101873.22;5078457;27;44829;-85
2022/06/10 08:05:46;;;;;;;;;2.00;2.00;;;;;23.39;100.00;101866.03;5076147;27;45209;-84
2022/06/10 08:08:17;;;;;;;;;2.20;2.00;;;;;23.44;100.00;101864.56;5082368;28;44709;-84
2022/06/10 08:10:43;;;;;;;;;1.00;1.00;;;;;23.22;100.00;101882.19;5079879;27;45190;-84
2022/06/10 08:13:09;;;;;;;;;1.40;1.40;;;;;23.18;100.00;101867.25;5078133;28;45594;-84
2022/06/10 08:15:36;;;;;;;;;2.00;1.00;;;;;23.20;100.00;101870.66;5081046;27;45387;-86
2022/06/10 08:18:02;;;;;;;;;2.40;2.40;;;;;23.22;100.00;101865.94;5083374;27;45328;-85
2022/06/10 08:23:32;;;;;;;;;2.00;1.00;;;;;23.15;100.00;101862.13;5068315;28;45316;-87
2022/06/10 08:25:59;;;;;;;;;3.40;2.00;;;;;23.12;100.00;101859.75;5074041;28;45607;-84
2022/06/10 08:28:26;;;;;;;;;2.20;2.20;;;;;23.04;100.00;101860.53;5069010;27;44855;-84
2022/06/10 08:30:51;;;;;;;;;1.80;0.60;;;;;23.23;100.00;101866.78;5084078;27;44782;-82
2022/06/10 08:33:18;;;;;;;;;2.00;0.00;;;;;23.40;100.00;101854.19;5078795;27;45282;-83
2022/06/10 08:35:43;;;;;;;;;0.00;0.00;;;;;23.51;100.00;101864.78;5076377;28;45522;-84
2022/06/10 08:38:12;;;;;;;;;0.75;0.75;;;;;23.62;100.00;101863.66;5064246;27;45520;-83
2022/06/10 08:40:44;;;;;;;;;2.20;1.00;;;;;23.62;100.00;101860.94;5076959;27;44794;-83
2022/06/10 08:43:40;;;;;;;;;2.20;1.00;;;;;23.62;100.00;101853.66;5071793;27;45267;-84
2022/06/10 08:46:39;;;;;;;;;1.20;1.20;;;;;23.76;100.00;101854.94;5065592;28;45288;-83
2022/06/10 08:49:46;;;;;;;;;1.00;1.00;;;;;23.77;100.00;101856.66;5059164;28;44812;-83
2022/06/10 08:52:21;;;;;;;;;2.00;1.00;;;;;23.67;100.00;101855.91;5062996;28;45551;-83
2022/06/10 08:55:04;;;;;;;;;1.00;1.00;;;;;23.60;100.00;101859.25;5068012;28;45318;-83
2022/06/10 08:57:37;;;;;;;;;1.20;1.00;;;;;23.57;100.00;101864.13;5069410;28;45320;-83
2022/06/10 09:00:14;;;;;;;;;3.00;2.00;;;;;23.59;100.00;101854.84;5070086;27;44808;-84
2022/06/10 09:03:00;;;;;;;;;2.00;2.00;;;;;23.65;100.00;101849.81;5075358;28;44892;-85
2022/06/10 09:05:34;;;;;;;;;3.20;3.00;;;;;23.49;100.00;101862.22;5071754;28;44901;-84
2022/06/10 09:08:12;;;;;;;;;2.80;1.20;;;;;23.50;100.00;101858.50;5078012;27;45104;-87
2022/06/10 09:11:07;;;;;;;;;2.20;2.00;;;;;23.72;100.00;101859.84;5081250;27;44782;-85
2022/06/10 09:13:40;;;;;;;;;2.00;2.00;;;;;23.87;100.00;101861.94;5062971;28;44713;-87
2022/06/10 09:16:26;;;;;;;;;2.00;2.00;;;;;24.00;100.00;101855.06;5077780;27;44865;-87
2022/06/10 09:19:15;;;;;;;;;1.00;1.00;;;;;24.26;100.00;101843.25;5072030;27;45115;-88
2022/06/10 09:21:48;;;;;;;;;1.00;1.00;;;;;24.30;100.00;101842.78;5070946;28;45318;-88
2022/06/10 09:24:34;;;;;;;;;1.00;1.00;;;;;24.24;100.00;101853.47;5076192;28;44825;-87
2022/06/10 09:27:16;;;;;;;;;2.20;0.00;;;;;23.98;100.00;101848.97;5072290;28;45335;-86
2022/06/10 09:29:42;;;;;;;;;2.20;1.00;;;;;24.09;100.00;101858.66;5077507;27;45408;-87
2022/06/10 09:32:10;;;;;;;;;0.40;0.40;;;;;24.07;100.00;101850.66;5069244;28;45281;-87
2022/06/10 09:34:49;;;;;;;;;0.20;0.20;;;;;24.19;100.00;101843.09;5072769;27;44785;-86
2022/06/10 09:37:45;;;;;;;;;1.00;1.00;;;;;24.10;100.00;101846.78;5081498;27;44812;-85
2022/06/10 09:40:36;;;;;;;;;1.20;1.20;;;;;24.32;100.00;101857.06;5067749;27;45289;-87
2022/06/10 09:43:58;;;;;;;;;1.00;1.00;;;;;24.30;98.97;101855.50;5074529;27;44847;-85
2022/06/10 09:46:54;;;;;;;;;0.40;0.40;;;;;24.48;100.00;101856.28;4997894;28;45606;-87
2022/06/10 09:49:30;;;;;;;;;1.20;1.00;;;;;24.58;98.00;101854.25;5015187;28;44866;-86
2022/06/10 09:52:02;;;;;;;;;0.80;0.80;;;;;24.62;98.28;101852.06;5004280;28;46882;-87
2022/06/10 09:54:43;;;;;;;;;0.20;0.20;;;;;24.49;98.53;101857.97;5000415;28;44786;-85
2022/06/10 09:57:53;;;;;;;;;0.00;0.00;;;;;24.59;99.82;101858.66;5018085;28;44771;-87
2022/06/10 10:00:33;;;;;;;;;1.60;0.00;;;;;24.80;98.91;101858.19;4998001;28;44787;-87
2022/06/10 10:03:22;;;;;;;;;0.40;0.40;;;;;24.79;98.74;101859.19;5003826;28;45095;-87
2022/06/10 10:06:04;;;;;;;;;1.00;1.00;;;;;24.36;100.00;101854.88;5002376;28;44803;-86
2022/06/10 10:09:07;;;;;;;;;0.00;0.00;;;;;24.46;100.00;101861.00;5005781;28;44869;-87
2022/06/10 10:11:59;;;;;;;;;1.00;1.00;;;;;24.46;99.71;101866.44;5017961;28;45382;-86
2022/06/10 10:14:45;;;;;;;;;1.00;1.00;;;;;24.51;100.00;101855.06;4996767;28;45304;-86
2022/06/10 10:17:38;;;;;;;;;1.00;1.00;;;;;24.66;99.72;101860.69;5042200;28;44808;-88
2022/06/10 10:20:28;;;;;;;;;1.00;1.00;;;;;24.75;100.00;101860.53;5069740;28;44816;-85
2022/06/10 10:23:09;;;;;;;;;2.00;0.00;;;;;24.77;100.00;101853.09;5080409;27;45170;-87
2022/06/10 10:25:39;;;;;;;;;3.00;2.80;;;;;24.87;100.00;101853.78;5082035;28;45081;-86
2022/06/10 10:28:29;;;;;;;;;3.60;2.20;;;;;24.72;99.17;101866.34;5068522;28;44738;-87
2022/06/10 10:31:12;;;;;;;;;1.00;1.00;;;;;24.32;100.00;101867.91;5087577;27;44835;-87
2022/06/10 10:33:39;;;;;;;;;5.40;3.00;;;;;23.54;100.00;101862.56;5082825;27;45302;-87
2022/06/10 10:36:21;;;;;;;;;1.20;1.20;;;;;23.62;100.00;101861.78;5081048;27;45355;-87
2022/06/10 10:38:50;;;;;;;;;3.00;3.00;;;;;23.66;100.00;101855.06;5070201;28;44862;-87
2022/06/10 10:41:32;;;;;;;;;3.60;2.00;;;;;23.48;100.00;101844.22;5072773;28;44910;-87
2022/06/10 10:44:01;;;;;;;;;1.00;1.00;;;;;23.94;100.00;101850.28;5077924;28;45248;-86
2022/06/10 10:46:56;;;;;;;;;2.40;1.20;;;;;24.46;100.00;101847.41;5061976;28;45109;-88
2022/06/10 10:49:27;;;;;;;;;0.80;0.20;;;;;24.77;100.00;101854.97;5080861;27;44792;-87
2022/06/10 10:51:54;;;;;;;;;1.00;1.00;;;;;24.80;100.00;101852.75;5089448;27;44703;-87
2022/06/10 10:54:23;;;;;;;;;2.80;1.00;;;;;24.90;100.00;101854.44;5089433;27;44714;-88
2022/06/10 10:56:49;;;;;;;;;1.00;1.00;;;;;24.82;100.00;101842.56;5085487;28;45401;-87
2022/06/10 10:59:38;;;;;;;;;2.20;1.80;;;;;25.02;100.00;101850.38;5069791;28;44815;-87
2022/06/10 11:02:42;;;;;;;;;2.60;1.40;;;;;24.34;100.00;101854.16;5084230;27;44836;-87
2022/06/10 11:05:31;;;;;;;;;2.80;1.80;;;;;24.62;100.00;101843.91;5015621;28;45358;-86
2022/06/10 11:08:17;;;;;;;;;2.60;1.40;;;;;25.11;100.00;101852.09;4997777;28;45695;-87
2022/06/10 11:10:48;;;;;;;;;2.80;2.80;;;;;25.43;100.00;101848.47;4997723;28;44862;-88
2022/06/10 11:13:27;;;;;;;;;1.00;1.00;;;;;25.55;100.00;101844.38;5010080;28;44783;-86
2022/06/10 11:15:52;;;;;;;;;1.60;1.00;;;;;25.45;100.00;101848.31;5004446;28;44977;-87
2022/06/10 11:18:19;;;;;;;;;1.00;1.00;;;;;25.40;100.00;101853.44;5006212;28;45450;-87
2022/06/10 11:20:45;;;;;;;;;3.20;1.60;;;;;25.31;100.00;101861.59;5001106;28;44754;-86
2022/06/10 11:23:26;;;;;;;;;3.20;1.00;;;;;25.04;100.00;101859.19;5016990;28;45206;-89
2022/06/10 11:26:16;;;;;;;;;2.60;0.60;;;;;25.04;100.00;101851.03;5001296;28;44892;-88
2022/06/10 11:28:44;;;;;;;;;2.20;2.20;;;;;24.59;100.00;101853.22;5021511;28;45132;-86
2022/06/10 11:31:28;;;;;;;;;2.00;0.60;;;;;24.22;100.00;101850.03;5015881;28;44851;-86
2022/06/10 11:33:58;;;;;;;;;1.40;1.40;;;;;24.29;100.00;101854.66;5007725;28;44823;-87
2022/06/10 11:36:43;;;;;;;;;4.00;2.00;;;;;23.91;100.00;101849.75;5048682;27;44825;-87
2022/06/10 11:39:17;;;;;;;;;4.80;3.00;;;;;24.02;100.00;101847.59;5090049;27;45371;-87
2022/06/10 11:42:00;;;;;;;;;1.00;1.00;;;;;23.92;100.00;101844.16;5070819;27;45221;-86
2022/06/10 11:44:31;;;;;;;;;3.40;2.00;;;;;24.16;100.00;101839.84;5069292;28;44855;-87
2022/06/10 11:47:20;;;;;;;;;1.40;1.20;;;;;24.10;100.00;101846.78;5081136;28;44845;-86
2022/06/10 11:49:57;;;;;;;;;3.00;1.20;;;;;24.09;100.00;101845.09;5084037;28;47163;-86
2022/06/10 11:52:59;;;;;;;;;1.20;1.20;;;;;23.49;100.00;101843.22;5079461;27;44848;-89
2022/06/10 11:55:33;;;;;;;;;2.40;2.00;;;;;23.99;100.00;101823.50;5066098;28;44838;-87
2022/06/10 12:01:25;;;;;;;;;1.00;1.00;;;;;24.11;100.00;101827.59;5086061;28;45182;-87
2022/06/10 12:04:03;;;;;;;;;2.00;2.00;;;;;23.69;100.00;101837.59;5087687;27;44752;-87
2022/06/10 12:06:31;;;;;;;;;1.20;1.20;;;;;23.99;100.00;101839.78;5080591;27;45248;-86
2022/06/10 12:09:18;;;;;;;;;1.20;1.20;;;;;24.64;100.00;101843.72;5067217;28;44939;-86